createdAt,value
2023-03-29T00:00:36.002Z,57.24
2023-03-29T00:03:03.880Z,56.53
2023-03-29T00:05:35.114Z,55.40
2023-03-29T00:08:03.787Z,55.38
2023-03-29T00:10:31.913Z,54.47
2023-03-29T00:13:02.447Z,53.19
2023-03-29T00:15:29.586Z,52.13
2023-03-29T00:17:57.376Z,51.25
2023-03-29T00:20:25.132Z,49.98
2023-03-29T00:22:52.241Z,48.79
2023-03-29T00:25:19.756Z,47.44
2023-03-29T00:27:46.933Z,45.97
2023-03-29T00:30:15.041Z,45.09
2023-03-29T00:32:42.798Z,44.11
2023-03-29T00:35:10.724Z,42.72
2023-03-29T00:37:37.907Z,42.10
2023-03-29T00:40:10.718Z,40.88
2023-03-29T00:42:38.163Z,39.91
2023-03-29T00:45:07.225Z,38.32
2023-03-29T00:47:42.615Z,37.49
2023-03-29T00:50:29.259Z,36.76
2023-03-29T00:53:04.028Z,35.90
2023-03-29T00:55:34.689Z,35.62
2023-03-29T00:58:02.504Z,34.84
2023-03-29T01:00:33.155Z,33.67
2023-03-29T01:03:00.607Z,33.09
2023-03-29T01:05:40.174Z,32.03
2023-03-29T01:08:27.432Z,31.27
2023-03-29T01:11:12.296Z,30.65
2023-03-29T01:13:55.256Z,30.01
2023-03-29T01:16:23.154Z,29.42
2023-03-29T01:18:53.316Z,28.87
2023-03-29T01:21:33.211Z,28.68
2023-03-29T01:24:10.514Z,28.31
2023-03-29T01:27:00.650Z,27.78
2023-03-29T01:29:54.271Z,27.04
2023-03-29T01:32:35.712Z,26.86
2023-03-29T01:35:13.995Z,26.33
2023-03-29T01:38:02.337Z,25.97
2023-03-29T01:40:30.981Z,26.03
2023-03-29T01:43:21.101Z,25.77
2023-03-29T01:46:02.842Z,25.33
2023-03-29T01:48:33.401Z,24.97
2023-03-29T01:51:07.360Z,24.64
2023-03-29T01:53:45.417Z,24.62
2023-03-29T01:56:17.952Z,23.89
2023-03-29T01:58:50.951Z,23.81
2023-03-29T02:01:23.000Z,23.10
2023-03-29T02:03:51.053Z,22.75
2023-03-29T02:06:20.536Z,23.02
2023-03-29T02:08:47.882Z,23.04
2023-03-29T02:11:15.693Z,23.12
2023-03-29T02:13:43.386Z,23.37
2023-03-29T02:16:14.434Z,23.83
2023-03-29T02:18:43.752Z,24.16
2023-03-29T02:21:17.967Z,24.18
2023-03-29T02:23:45.952Z,23.79
2023-03-29T02:26:14.189Z,23.33
2023-03-29T02:28:41.931Z,23.99
2023-03-29T02:31:26.460Z,24.02
2023-03-29T02:34:01.544Z,23.97
2023-03-29T02:36:46.410Z,24.25
2023-03-29T02:39:15.206Z,24.43
2023-03-29T02:41:44.134Z,24.86
2023-03-29T02:44:13.925Z,24.56
2023-03-29T02:46:43.528Z,24.58
2023-03-29T02:49:12.422Z,24.45
2023-03-29T02:51:39.517Z,24.46
2023-03-29T02:54:13.687Z,24.89
2023-03-29T02:56:48.991Z,24.93
2023-03-29T02:59:19.537Z,25.31
2023-03-29T03:01:46.917Z,25.30
2023-03-29T03:04:14.580Z,25.04
2023-03-29T03:06:41.688Z,25.33
2023-03-29T03:09:10.762Z,25.61
2023-03-29T03:11:41.518Z,26.31
2023-03-29T03:14:09.263Z,26.51
2023-03-29T03:16:37.248Z,26.33
2023-03-29T03:19:05.473Z,25.61
2023-03-29T03:21:33.948Z,25.86
2023-03-29T03:24:01.116Z,25.85
2023-03-29T03:26:32.342Z,26.07
2023-03-29T03:29:00.905Z,26.05
2023-03-29T03:31:47.448Z,26.13
2023-03-29T03:34:35.281Z,26.70
2023-03-29T03:37:03.309Z,26.37
2023-03-29T03:39:33.852Z,25.97
2023-03-29T03:42:07.892Z,26.29
2023-03-29T03:44:41.617Z,26.76
2023-03-29T03:47:28.946Z,27.42
2023-03-29T03:49:58.713Z,27.70
2023-03-29T03:52:26.993Z,27.66
2023-03-29T03:54:54.256Z,27.70
2023-03-29T03:57:42.044Z,27.42
2023-03-29T04:00:19.811Z,27.67
2023-03-29T04:02:57.755Z,27.44
2023-03-29T04:05:26.097Z,27.40
2023-03-29T04:07:55.960Z,27.25
2023-03-29T04:10:42.190Z,26.91
2023-03-29T04:13:17.185Z,26.89
2023-03-29T04:16:10.185Z,26.57
2023-03-29T04:18:37.803Z,26.34
2023-03-29T04:21:05.640Z,26.23
2023-03-29T04:23:36.109Z,25.70
2023-03-29T04:26:03.769Z,25.76
2023-03-29T04:28:47.481Z,25.88
2023-03-29T04:31:22.949Z,25.98
2023-03-29T04:34:19.501Z,25.86
2023-03-29T04:36:52.770Z,25.55
2023-03-29T04:39:31.980Z,25.23
2023-03-29T04:42:02.589Z,24.78
2023-03-29T04:44:33.628Z,24.92
2023-03-29T04:47:03.783Z,25.17
2023-03-29T04:49:49.753Z,24.88
2023-03-29T04:52:32.792Z,25.51
2023-03-29T04:55:02.594Z,25.50
2023-03-29T04:57:48.957Z,25.53
2023-03-29T05:00:27.341Z,25.52
2023-03-29T05:03:13.206Z,25.63
2023-03-29T05:05:51.887Z,25.99
2023-03-29T05:08:19.012Z,26.13
2023-03-29T05:11:24.471Z,26.29
2023-03-29T05:13:52.260Z,26.65
2023-03-29T05:16:20.745Z,26.36
2023-03-29T05:18:48.652Z,26.66
2023-03-29T05:21:16.332Z,26.86
2023-03-29T05:23:45.854Z,27.12
2023-03-29T05:26:39.712Z,27.14
2023-03-29T05:29:09.148Z,27.23
2023-03-29T05:31:37.612Z,27.25
2023-03-29T05:34:05.165Z,27.37
2023-03-29T05:36:35.519Z,27.71
2023-03-29T05:39:05.021Z,27.53
2023-03-29T05:41:34.198Z,27.36
2023-03-29T05:44:01.450Z,27.41
2023-03-29T05:46:29.836Z,27.41
2023-03-29T05:49:01.738Z,27.43
2023-03-29T05:51:49.138Z,27.39
2023-03-29T05:54:16.780Z,27.08
2023-03-29T05:56:44.411Z,27.02
2023-03-29T05:59:13.410Z,27.02
2023-03-29T06:01:41.581Z,27.02
2023-03-29T06:04:12.668Z,26.29
2023-03-29T06:06:53.196Z,26.45
2023-03-29T06:09:20.875Z,26.76
2023-03-29T06:11:57.314Z,26.73
2023-03-29T06:14:45.643Z,26.68
2023-03-29T06:17:30.687Z,26.83
2023-03-29T06:19:58.241Z,26.59
2023-03-29T06:22:27.430Z,25.81
2023-03-29T06:24:54.862Z,25.84
2023-03-29T06:27:26.041Z,25.15
2023-03-29T06:29:53.850Z,24.88
2023-03-29T06:32:21.883Z,25.28
2023-03-29T06:34:58.762Z,25.24
2023-03-29T06:37:49.010Z,25.00
2023-03-29T06:40:28.929Z,24.70
2023-03-29T06:42:57.773Z,24.55
2023-03-29T06:45:27.482Z,24.14
2023-03-29T06:47:59.153Z,24.33
2023-03-29T06:50:27.089Z,23.79
2023-03-29T06:53:15.601Z,23.21
2023-03-29T06:55:45.540Z,23.20
2023-03-29T06:58:33.329Z,22.92
2023-03-29T07:01:08.210Z,23.02
2023-03-29T07:03:50.329Z,22.42
2023-03-29T07:06:26.051Z,22.57
2023-03-29T07:08:59.266Z,22.51
2023-03-29T07:12:05.370Z,22.32
2023-03-29T07:14:33.206Z,22.11
2023-03-29T07:17:00.768Z,22.48
2023-03-29T07:19:39.258Z,21.95
2023-03-29T07:22:30.011Z,21.93
2023-03-29T07:25:01.615Z,21.34
2023-03-29T07:27:30.159Z,21.94
2023-03-29T07:29:58.154Z,21.37
2023-03-29T07:32:26.630Z,22.27
2023-03-29T07:35:11.934Z,21.43
2023-03-29T07:37:39.736Z,21.09
2023-03-29T07:40:11.012Z,20.92
2023-03-29T07:42:48.177Z,21.11
2023-03-29T07:45:26.698Z,20.97
2023-03-29T07:48:06.981Z,20.66
2023-03-29T07:50:54.722Z,20.94
2023-03-29T07:53:29.392Z,21.21
2023-03-29T07:55:58.769Z,20.82
2023-03-29T07:58:44.636Z,20.39
2023-03-29T08:01:17.976Z,19.73
2023-03-29T08:04:10.309Z,19.99
2023-03-29T08:06:56.080Z,19.50
2023-03-29T08:09:31.761Z,19.55
2023-03-29T08:12:00.182Z,19.02
2023-03-29T08:14:38.100Z,18.75
2023-03-29T08:17:15.800Z,18.65
2023-03-29T08:19:50.988Z,18.42
2023-03-29T08:22:24.786Z,18.11
2023-03-29T08:25:27.941Z,18.08
2023-03-29T08:27:56.199Z,17.56
2023-03-29T08:30:50.741Z,17.25
2023-03-29T08:33:19.267Z,17.27
2023-03-29T08:35:54.313Z,16.83
2023-03-29T08:38:29.658Z,16.98
2023-03-29T08:40:57.807Z,16.89
2023-03-29T08:44:02.764Z,17.65
2023-03-29T08:46:55.795Z,17.15
2023-03-29T08:49:32.175Z,17.08
2023-03-29T08:52:03.361Z,17.30
2023-03-29T08:54:37.472Z,17.05
2023-03-29T08:57:33.367Z,16.81
2023-03-29T09:00:07.472Z,17.60
2023-03-29T09:02:39.025Z,16.98
2023-03-29T09:05:35.654Z,17.48
2023-03-29T09:08:18.691Z,16.91
2023-03-29T09:11:37.516Z,16.52
2023-03-29T09:14:33.329Z,16.59
2023-03-29T09:17:12.433Z,16.27
2023-03-29T09:19:45.439Z,16.07
2023-03-29T09:22:32.662Z,16.59
2023-03-29T09:25:23.952Z,16.07
2023-03-29T09:28:05.072Z,16.64
2023-03-29T09:30:44.584Z,16.45
2023-03-29T09:33:17.174Z,16.33
2023-03-29T09:36:04.806Z,16.52
2023-03-29T09:38:35.610Z,16.53
2023-03-29T09:41:21.704Z,17.33
2023-03-29T09:43:50.520Z,17.21
2023-03-29T09:46:29.094Z,17.02
2023-03-29T09:48:57.123Z,17.15
2023-03-29T09:51:27.396Z,17.23
2023-03-29T09:53:56.777Z,17.79
2023-03-29T09:56:53.594Z,18.13
2023-03-29T09:59:22.161Z,18.05
2023-03-29T10:01:49.457Z,18.57
2023-03-29T10:04:17.745Z,18.83
2023-03-29T10:06:52.658Z,18.70
2023-03-29T10:09:21.937Z,18.56
2023-03-29T10:11:54.116Z,18.98
2023-03-29T10:14:42.709Z,19.35
2023-03-29T10:17:16.325Z,19.44
2023-03-29T10:19:51.391Z,19.01
2023-03-29T10:22:37.592Z,19.54
2023-03-29T10:25:09.432Z,19.68
2023-03-29T10:27:37.300Z,19.85
2023-03-29T10:30:11.681Z,19.96
2023-03-29T10:32:39.438Z,19.97
2023-03-29T10:35:22.726Z,19.83
2023-03-29T10:37:51.717Z,19.90
2023-03-29T10:40:26.392Z,20.39
2023-03-29T10:42:53.976Z,20.33
2023-03-29T10:45:25.471Z,20.23
2023-03-29T10:47:55.680Z,20.35
2023-03-29T10:50:23.574Z,20.29
2023-03-29T10:52:51.399Z,20.22
2023-03-29T10:55:19.764Z,20.31
2023-03-29T10:57:52.821Z,20.58
2023-03-29T11:00:27.543Z,20.63
2023-03-29T11:03:21.393Z,20.58
2023-03-29T11:05:52.280Z,20.62
2023-03-29T11:08:38.452Z,20.82
2023-03-29T11:11:14.460Z,20.65
2023-03-29T11:14:14.267Z,21.01
2023-03-29T11:17:03.190Z,20.76
2023-03-29T11:20:05.168Z,21.14
2023-03-29T11:23:18.013Z,21.46
2023-03-29T11:25:45.337Z,21.38
2023-03-29T11:28:24.134Z,20.71
2023-03-29T11:30:53.431Z,21.39
2023-03-29T11:33:33.437Z,21.14
2023-03-29T11:36:00.517Z,20.83
2023-03-29T11:38:35.818Z,21.02
2023-03-29T11:41:20.352Z,20.84
2023-03-29T11:43:49.811Z,20.81
2023-03-29T11:46:40.009Z,21.50
2023-03-29T11:49:36.837Z,21.80
2023-03-29T11:52:39.451Z,21.73
2023-03-29T11:55:25.800Z,21.85
2023-03-29T11:57:56.881Z,22.07
2023-03-29T12:00:27.640Z,21.70
2023-03-29T12:03:15.299Z,21.75
2023-03-29T12:05:45.733Z,21.69
2023-03-29T12:08:28.393Z,22.14
2023-03-29T12:11:04.380Z,21.79
2023-03-29T12:13:32.762Z,21.84
2023-03-29T12:16:22.185Z,21.61
2023-03-29T12:18:50.322Z,22.19
2023-03-29T12:21:26.288Z,22.38
2023-03-29T12:23:55.134Z,22.74
2023-03-29T12:26:54.900Z,22.73
2023-03-29T12:29:46.565Z,23.36
2023-03-29T12:32:36.424Z,23.26
2023-03-29T12:35:39.006Z,23.13
2023-03-29T12:38:30.968Z,23.11
2023-03-29T12:41:21.653Z,23.02
2023-03-29T12:44:24.627Z,23.05
2023-03-29T12:47:10.315Z,23.16
2023-03-29T12:49:38.310Z,22.94
2023-03-29T12:52:21.677Z,22.81
2023-03-29T12:54:57.120Z,22.88
2023-03-29T12:57:40.786Z,22.53
2023-03-29T13:00:21.322Z,22.21
2023-03-29T13:03:27.160Z,22.66
2023-03-29T13:06:05.648Z,22.78
2023-03-29T13:08:38.334Z,22.85
2023-03-29T13:11:06.308Z,23.18
2023-03-29T13:13:37.625Z,23.52
2023-03-29T13:16:11.620Z,23.60
2023-03-29T13:18:41.903Z,23.30
2023-03-29T13:21:50.586Z,23.78
2023-03-29T13:24:20.953Z,24.30
2023-03-29T13:27:00.410Z,24.31
2023-03-29T13:29:58.732Z,24.69
2023-03-29T13:32:36.738Z,25.07
2023-03-29T13:35:25.602Z,25.39
2023-03-29T13:38:17.856Z,26.13
2023-03-29T13:40:47.405Z,25.90
2023-03-29T13:43:18.931Z,26.49
2023-03-29T13:45:57.217Z,26.60
2023-03-29T13:48:33.248Z,27.25
2023-03-29T13:51:02.182Z,27.11
2023-03-29T13:53:32.905Z,27.62
2023-03-29T13:56:00.570Z,27.01
2023-03-29T13:58:46.244Z,28.08
2023-03-29T14:01:19.562Z,28.18
2023-03-29T14:03:48.598Z,28.42
2023-03-29T14:06:21.999Z,28.76
2023-03-29T14:08:49.692Z,28.98
2023-03-29T14:11:28.530Z,29.10
2023-03-29T14:14:00.004Z,29.39
2023-03-29T14:16:29.141Z,29.26
2023-03-29T14:18:59.000Z,29.73
2023-03-29T14:21:26.276Z,30.29
2023-03-29T14:24:03.475Z,30.39
2023-03-29T14:26:32.813Z,30.20
2023-03-29T14:29:01.101Z,30.64
2023-03-29T14:31:33.321Z,31.14
2023-03-29T14:34:01.965Z,31.54
2023-03-29T14:36:30.303Z,31.18
2023-03-29T14:39:17.842Z,31.38
2023-03-29T14:41:50.114Z,31.76
2023-03-29T14:44:18.697Z,32.26
2023-03-29T14:46:48.992Z,32.42
2023-03-29T14:49:17.571Z,32.14
2023-03-29T14:51:45.822Z,31.95
2023-03-29T14:54:33.659Z,32.54
2023-03-29T14:57:03.984Z,32.90
2023-03-29T14:59:38.641Z,32.55
2023-03-29T15:02:22.148Z,32.61
2023-03-29T15:05:05.335Z,32.07
2023-03-29T15:07:34.003Z,31.88
2023-03-29T15:10:02.062Z,31.99
2023-03-29T15:12:30.382Z,32.41
2023-03-29T15:14:58.233Z,32.11
2023-03-29T15:17:43.151Z,32.05
2023-03-29T15:20:28.158Z,31.98
2023-03-29T15:23:04.249Z,31.27
2023-03-29T15:25:38.839Z,30.79
2023-03-29T15:28:06.415Z,30.97
2023-03-29T15:30:45.095Z,31.27
2023-03-29T15:33:16.564Z,30.82
2023-03-29T15:35:44.165Z,31.12
2023-03-29T15:38:12.547Z,31.02
2023-03-29T15:40:39.981Z,31.95
2023-03-29T15:43:07.462Z,31.55
2023-03-29T15:45:34.708Z,31.72
2023-03-29T15:48:04.432Z,31.80
2023-03-29T15:50:32.279Z,31.71
2023-03-29T15:53:08.614Z,31.67
2023-03-29T15:55:41.457Z,32.25
2023-03-29T15:58:15.388Z,32.20
2023-03-29T16:00:43.833Z,32.42
2023-03-29T16:03:13.014Z,32.15
2023-03-29T16:05:40.684Z,32.30
2023-03-29T16:08:12.411Z,32.44
2023-03-29T16:10:40.544Z,32.59
2023-03-29T16:13:09.671Z,32.64
2023-03-29T16:15:37.473Z,32.57
2023-03-29T16:18:05.368Z,32.69
2023-03-29T16:20:32.840Z,32.92
2023-03-29T16:23:01.094Z,32.88
2023-03-29T16:25:28.757Z,33.09
2023-03-29T16:27:56.508Z,33.01
2023-03-29T16:30:24.975Z,33.07
2023-03-29T16:32:52.022Z,33.06
2023-03-29T16:35:26.673Z,32.84
2023-03-29T16:37:53.817Z,33.07
2023-03-29T16:40:21.742Z,32.89
2023-03-29T16:42:49.400Z,33.31
2023-03-29T16:45:16.655Z,33.33
2023-03-29T16:47:44.618Z,33.59
2023-03-29T16:50:17.782Z,33.86
2023-03-29T16:52:45.475Z,33.86
2023-03-29T16:55:13.225Z,34.25
2023-03-29T16:57:42.101Z,34.60
2023-03-29T17:00:19.673Z,34.36
2023-03-29T17:02:50.474Z,34.75
2023-03-29T17:05:18.396Z,35.03
2023-03-29T17:07:45.605Z,34.80
2023-03-29T17:10:12.974Z,35.31
2023-03-29T17:12:40.894Z,35.24
2023-03-29T17:15:09.046Z,34.73
2023-03-29T17:17:37.809Z,35.05
2023-03-29T17:20:11.911Z,35.48
2023-03-29T17:22:39.777Z,35.56
2023-03-29T17:25:07.641Z,36.31
2023-03-29T17:27:35.510Z,36.30
2023-03-29T17:30:02.568Z,36.30
2023-03-29T17:32:29.882Z,35.83
2023-03-29T17:34:58.965Z,35.93
2023-03-29T17:37:27.496Z,35.54
2023-03-29T17:39:55.058Z,35.83
2023-03-29T17:42:22.268Z,35.36
2023-03-29T17:44:49.655Z,35.79
2023-03-29T17:47:16.885Z,35.34
2023-03-29T17:49:44.094Z,35.46
2023-03-29T17:52:11.916Z,35.97
2023-03-29T17:54:39.304Z,35.59
2023-03-29T17:57:07.059Z,35.72
2023-03-29T17:59:34.653Z,35.99
2023-03-29T18:02:04.949Z,35.80
2023-03-29T18:04:33.534Z,36.31
2023-03-29T18:07:01.301Z,36.39
2023-03-29T18:09:30.240Z,36.15
2023-03-29T18:11:58.816Z,36.86
2023-03-29T18:14:26.080Z,36.54
2023-03-29T18:16:53.366Z,37.27
2023-03-29T18:19:20.527Z,36.84
2023-03-29T18:21:48.144Z,36.96
2023-03-29T18:24:15.159Z,37.06
2023-03-29T18:26:42.509Z,37.66
2023-03-29T18:29:10.007Z,37.62
2023-03-29T18:31:37.819Z,38.12
2023-03-29T18:34:05.553Z,38.15
2023-03-29T18:36:32.983Z,38.56
2023-03-29T18:39:05.364Z,38.35
2023-03-29T18:41:33.811Z,38.05
2023-03-29T18:44:01.365Z,38.09
2023-03-29T18:46:30.849Z,38.68
2023-03-29T18:49:01.120Z,38.59
2023-03-29T18:51:28.342Z,38.27
2023-03-29T18:53:55.733Z,38.21
2023-03-29T18:56:22.994Z,38.39
2023-03-29T18:58:50.702Z,38.31
2023-03-29T19:01:17.746Z,39.00
2023-03-29T19:03:45.090Z,38.72
2023-03-29T19:06:12.761Z,38.31
2023-03-29T19:08:41.007Z,38.56
2023-03-29T19:11:10.271Z,38.61
2023-03-29T19:13:37.614Z,38.54
2023-03-29T19:16:05.923Z,38.13
2023-03-29T19:18:33.152Z,38.57
2023-03-29T19:21:00.811Z,38.87
2023-03-29T19:23:28.253Z,38.94
2023-03-29T19:26:00.252Z,38.95
2023-03-29T19:28:27.538Z,39.00
2023-03-29T19:30:56.003Z,39.37
2023-03-29T19:33:23.068Z,39.49
2023-03-29T19:35:51.416Z,39.55
2023-03-29T19:38:19.249Z,38.88
2023-03-29T19:40:49.796Z,39.22
2023-03-29T19:43:17.940Z,39.57
2023-03-29T19:45:49.481Z,39.21
2023-03-29T19:48:22.550Z,40.00
2023-03-29T19:50:51.094Z,39.52
2023-03-29T19:53:18.452Z,39.51
2023-03-29T19:55:46.199Z,39.24
2023-03-29T19:58:13.379Z,39.73
2023-03-29T20:00:41.314Z,39.72
2023-03-29T20:03:12.596Z,39.92
2023-03-29T20:05:40.123Z,39.25
2023-03-29T20:08:07.521Z,39.37
2023-03-29T20:10:38.148Z,40.02
2023-03-29T20:13:06.207Z,39.73
2023-03-29T20:15:33.802Z,39.59
2023-03-29T20:18:01.564Z,39.55
2023-03-29T20:20:29.985Z,39.87
2023-03-29T20:23:03.696Z,39.55
2023-03-29T20:25:34.406Z,39.89
2023-03-29T20:28:02.196Z,39.66
2023-03-29T20:30:29.683Z,39.64
2023-03-29T20:32:57.146Z,40.09
2023-03-29T20:35:24.609Z,40.41
2023-03-29T20:37:51.866Z,40.90
2023-03-29T20:40:20.861Z,40.81
2023-03-29T20:42:49.502Z,41.16
2023-03-29T20:45:20.163Z,40.76
2023-03-29T20:47:57.372Z,41.47
2023-03-29T20:50:29.045Z,40.83
2023-03-29T20:52:56.731Z,41.18
2023-03-29T20:55:24.344Z,41.22
2023-03-29T20:57:56.480Z,41.68
2023-03-29T21:00:25.026Z,41.12
2023-03-29T21:02:54.849Z,41.75
2023-03-29T21:05:22.917Z,41.98
2023-03-29T21:07:50.815Z,42.57
2023-03-29T21:10:18.263Z,42.38
2023-03-29T21:12:45.488Z,42.18
2023-03-29T21:15:13.219Z,42.21
2023-03-29T21:17:41.096Z,42.34
2023-03-29T21:20:10.849Z,42.27
2023-03-29T21:22:39.071Z,42.38
2023-03-29T21:25:08.266Z,42.79
2023-03-29T21:27:36.395Z,42.55
2023-03-29T21:30:05.475Z,41.75
2023-03-29T21:32:33.055Z,41.63
2023-03-29T21:35:00.207Z,41.98
2023-03-29T21:37:27.606Z,42.03
2023-03-29T21:39:54.981Z,41.53
2023-03-29T21:42:22.421Z,41.88
2023-03-29T21:44:49.839Z,41.75
2023-03-29T21:47:17.170Z,41.99
2023-03-29T21:49:44.328Z,41.14
2023-03-29T21:52:11.576Z,41.40
2023-03-29T21:54:39.135Z,41.27
2023-03-29T21:57:06.526Z,41.45
2023-03-29T21:59:34.239Z,41.18
2023-03-29T22:02:01.573Z,41.01
2023-03-29T22:04:36.676Z,40.97
2023-03-29T22:07:05.446Z,41.34
2023-03-29T22:09:34.326Z,41.29
2023-03-29T22:12:01.801Z,41.21
2023-03-29T22:14:29.947Z,40.91
2023-03-29T22:16:57.473Z,41.16
2023-03-29T22:19:24.791Z,41.39
2023-03-29T22:21:52.547Z,40.77
2023-03-29T22:24:19.651Z,41.04
2023-03-29T22:26:47.922Z,41.13
2023-03-29T22:29:15.697Z,41.08
2023-03-29T22:31:43.045Z,41.24
2023-03-29T22:34:10.283Z,40.50
2023-03-29T22:36:37.628Z,41.15
2023-03-29T22:39:05.450Z,41.12
2023-03-29T22:41:32.439Z,40.97
2023-03-29T22:44:01.222Z,41.49
2023-03-29T22:46:28.626Z,41.31
2023-03-29T22:48:55.978Z,40.96
2023-03-29T22:51:23.675Z,41.43
2023-03-29T22:53:51.480Z,41.27
2023-03-29T22:56:18.558Z,41.23
2023-03-29T22:58:46.488Z,41.54
2023-03-29T23:01:13.699Z,41.52
2023-03-29T23:03:41.319Z,41.89
2023-03-29T23:06:08.703Z,42.46
2023-03-29T23:08:35.918Z,42.49
2023-03-29T23:11:04.073Z,43.30
2023-03-29T23:13:33.134Z,43.31
2023-03-29T23:16:00.821Z,43.36
2023-03-29T23:18:29.304Z,43.08
2023-03-29T23:20:57.628Z,42.75
2023-03-29T23:23:25.832Z,42.77
2023-03-29T23:25:53.778Z,42.19
2023-03-29T23:28:23.502Z,41.64
2023-03-29T23:31:02.452Z,41.73
2023-03-29T23:33:33.742Z,42.08
2023-03-29T23:36:05.136Z,41.39
2023-03-29T23:38:33.853Z,41.47
2023-03-29T23:41:02.580Z,41.13
2023-03-29T23:43:32.713Z,41.50
2023-03-29T23:46:02.154Z,40.80
2023-03-29T23:48:29.607Z,40.28
2023-03-29T23:51:00.098Z,40.73
2023-03-29T23:53:28.386Z,39.79
2023-03-29T23:56:00.453Z,38.62
2023-03-29T23:58:29.046Z,38.14
